createdAt,value
2023-04-08T00:01:03.836Z,83.17
2023-04-08T00:03:32.715Z,84.69
2023-04-08T00:06:02.978Z,85.99
2023-04-08T00:08:31.202Z,85.94
2023-04-08T00:10:59.555Z,86.81
2023-04-08T00:13:27.480Z,85.32
2023-04-08T00:15:55.498Z,84.16
2023-04-08T00:18:23.783Z,86.55
2023-04-08T00:20:51.649Z,87.16
2023-04-08T00:23:21.575Z,85.08
2023-04-08T00:25:49.923Z,85.83
2023-04-08T00:28:17.838Z,87.38
2023-04-08T00:30:45.992Z,88.05
2023-04-08T00:33:14.280Z,89.84
2023-04-08T00:35:42.214Z,88.32
2023-04-08T00:38:10.593Z,87.43
2023-04-08T00:40:39.170Z,85.51
2023-04-08T00:43:07.055Z,87.98
2023-04-08T00:45:35.113Z,87.22
2023-04-08T00:48:04.789Z,88.54
2023-04-08T00:50:32.839Z,90.14
2023-04-08T00:53:00.688Z,90.69
2023-04-08T00:55:29.160Z,89.22
2023-04-08T00:57:57.416Z,87.23
2023-04-08T01:00:26.382Z,85.98
2023-04-08T01:03:08.719Z,86.34
2023-04-08T01:05:44.415Z,87.83
2023-04-08T01:08:12.923Z,88.16
2023-04-08T01:10:43.153Z,88.13
2023-04-08T01:13:15.040Z,89.02
2023-04-08T01:15:44.760Z,89.35
2023-04-08T01:18:14.278Z,89.20
2023-04-08T01:20:43.617Z,87.53
2023-04-08T01:23:31.851Z,87.92
2023-04-08T01:25:59.706Z,91.24
2023-04-08T01:28:30.012Z,91.72
2023-04-08T01:31:01.253Z,90.23
2023-04-08T01:33:29.976Z,89.72
2023-04-08T01:35:58.844Z,89.17
2023-04-08T01:38:27.494Z,87.63
2023-04-08T01:40:56.148Z,87.49
2023-04-08T01:43:25.096Z,87.63
2023-04-08T01:45:58.469Z,86.78
2023-04-08T01:48:27.534Z,87.33
2023-04-08T01:50:56.499Z,87.62
2023-04-08T01:53:24.477Z,87.55
2023-04-08T01:55:58.733Z,87.70
2023-04-08T01:58:30.065Z,86.48
2023-04-08T02:00:59.390Z,87.73
2023-04-08T02:03:29.136Z,88.06
2023-04-08T02:05:57.261Z,86.99
2023-04-08T02:08:25.165Z,87.93
2023-04-08T02:10:54.892Z,89.10
2023-04-08T02:13:22.844Z,87.61
2023-04-08T02:15:58.258Z,90.35
2023-04-08T02:18:28.397Z,91.82
2023-04-08T02:21:15.080Z,89.38
2023-04-08T02:23:47.375Z,89.07
2023-04-08T02:26:17.196Z,88.17
2023-04-08T02:28:46.310Z,88.63
2023-04-08T02:31:15.161Z,89.52
2023-04-08T02:33:45.962Z,88.22
2023-04-08T02:36:14.898Z,90.43
2023-04-08T02:38:42.818Z,91.56
2023-04-08T02:41:11.162Z,91.64
2023-04-08T02:43:39.072Z,89.33
2023-04-08T02:46:07.585Z,92.11
2023-04-08T02:48:37.122Z,93.24
2023-04-08T02:51:04.993Z,92.85
2023-04-08T02:53:32.964Z,90.53
2023-04-08T02:56:01.516Z,91.20
2023-04-08T02:58:29.444Z,91.60
2023-04-08T03:00:57.439Z,91.10
2023-04-08T03:03:29.861Z,92.55
2023-04-08T03:05:58.800Z,93.19
2023-04-08T03:08:27.118Z,90.37
2023-04-08T03:10:55.029Z,91.69
2023-04-08T03:13:22.993Z,91.47
2023-04-08T03:15:51.300Z,92.35
2023-04-08T03:18:19.221Z,90.66
2023-04-08T03:20:47.453Z,91.06
2023-04-08T03:23:16.618Z,90.41
2023-04-08T03:25:44.661Z,91.40
2023-04-08T03:28:12.626Z,90.59
2023-04-08T03:30:41.179Z,92.84
2023-04-08T03:33:09.357Z,90.19
2023-04-08T03:35:37.796Z,93.20
2023-04-08T03:38:06.433Z,92.96
2023-04-08T03:40:34.406Z,91.69
2023-04-08T03:43:02.286Z,92.97
2023-04-08T03:45:30.677Z,92.44
2023-04-08T03:47:58.626Z,93.83
2023-04-08T03:50:26.717Z,94.00
2023-04-08T03:52:54.917Z,94.31
2023-04-08T03:55:22.864Z,93.58
2023-04-08T03:57:50.878Z,92.34
2023-04-08T04:00:19.094Z,95.18
2023-04-08T04:02:47.540Z,94.31
2023-04-08T04:05:15.703Z,94.95
2023-04-08T04:07:43.648Z,93.04
2023-04-08T04:10:12.226Z,93.21
2023-04-08T04:12:40.158Z,91.38
2023-04-08T04:15:08.502Z,91.41
2023-04-08T04:17:36.746Z,90.57
2023-04-08T04:20:06.646Z,88.76
2023-04-08T04:22:34.489Z,91.05
2023-04-08T04:25:02.806Z,92.71
2023-04-08T04:27:30.851Z,88.45
2023-04-08T04:29:58.743Z,90.84
2023-04-08T04:32:27.189Z,92.29
2023-04-08T04:34:55.214Z,93.21
2023-04-08T04:37:23.415Z,92.67
2023-04-08T04:39:51.675Z,91.75
2023-04-08T04:42:19.638Z,94.42
2023-04-08T04:44:47.953Z,92.70
2023-04-08T04:47:16.652Z,92.93
2023-04-08T04:49:45.903Z,91.68
2023-04-08T04:52:13.859Z,92.36
2023-04-08T04:54:42.071Z,93.31
2023-04-08T04:57:11.491Z,90.60
2023-04-08T04:59:39.351Z,90.62
2023-04-08T05:02:07.705Z,93.17
2023-04-08T05:04:36.332Z,91.96
2023-04-08T05:07:04.506Z,93.03
2023-04-08T05:09:32.761Z,92.65
2023-04-08T05:12:00.678Z,93.70
2023-04-08T05:14:31.885Z,86.61
2023-04-08T05:17:00.158Z,91.20
2023-04-08T05:19:28.018Z,90.28
2023-04-08T05:21:56.142Z,90.37
2023-04-08T05:24:24.366Z,91.31
2023-04-08T05:26:53.505Z,91.60
2023-04-08T05:29:22.133Z,93.48
2023-04-08T05:31:50.743Z,92.37
2023-04-08T05:34:23.308Z,90.33
2023-04-08T05:36:54.670Z,92.10
2023-04-08T05:39:22.501Z,90.75
2023-04-08T05:41:50.668Z,92.56
2023-04-08T05:44:19.137Z,92.54
2023-04-08T05:46:47.191Z,92.00
2023-04-08T05:49:15.953Z,90.64
2023-04-08T05:51:44.303Z,92.37
2023-04-08T05:54:12.285Z,94.06
2023-04-08T05:56:40.525Z,91.68
2023-04-08T05:59:08.741Z,94.08
2023-04-08T06:01:36.798Z,91.79
2023-04-08T06:04:05.621Z,88.88
2023-04-08T06:06:33.669Z,88.17
2023-04-08T06:09:01.774Z,91.79
2023-04-08T06:11:30.143Z,88.94
2023-04-08T06:13:58.101Z,91.43
2023-04-08T06:16:26.201Z,87.74
2023-04-08T06:18:54.742Z,89.42
2023-04-08T06:21:22.607Z,92.22
2023-04-08T06:23:50.441Z,90.93
2023-04-08T06:26:18.719Z,90.39
2023-04-08T06:28:46.628Z,92.67
2023-04-08T06:31:14.526Z,90.06
2023-04-08T06:33:42.833Z,89.50
2023-04-08T06:36:11.467Z,90.61
2023-04-08T06:38:39.609Z,91.28
2023-04-08T06:41:08.383Z,90.66
2023-04-08T06:43:38.015Z,89.88
2023-04-08T06:46:06.461Z,92.30
2023-04-08T06:48:34.848Z,91.00
2023-04-08T06:51:03.047Z,88.22
2023-04-08T06:53:33.008Z,86.53
2023-04-08T06:56:01.521Z,88.59
2023-04-08T06:58:30.194Z,87.71
2023-04-08T07:01:00.130Z,87.01
2023-04-08T07:03:30.007Z,85.28
2023-04-08T07:05:57.946Z,86.59
2023-04-08T07:08:25.930Z,88.17
2023-04-08T07:10:54.296Z,87.88
2023-04-08T07:13:22.210Z,88.42
2023-04-08T07:15:50.111Z,88.39
2023-04-08T07:18:18.857Z,87.96
2023-04-08T07:20:51.445Z,89.75
2023-04-08T07:23:20.358Z,87.57
2023-04-08T07:25:48.470Z,87.87
2023-04-08T07:28:16.484Z,89.50
2023-04-08T07:30:44.824Z,90.26
2023-04-08T07:33:12.872Z,89.23
2023-04-08T07:35:42.256Z,86.59
2023-04-08T07:38:11.792Z,86.57
2023-04-08T07:40:39.753Z,86.91
2023-04-08T07:43:09.326Z,88.86
2023-04-08T07:45:37.564Z,87.15
2023-04-08T07:48:05.695Z,87.76
2023-04-08T07:50:33.677Z,87.38
2023-04-08T07:53:02.069Z,84.28
2023-04-08T07:55:37.496Z,87.58
2023-04-08T07:58:07.941Z,90.67
2023-04-08T08:00:35.814Z,89.03
2023-04-08T08:03:04.176Z,89.43
2023-04-08T08:05:32.122Z,88.37
2023-04-08T08:08:00.016Z,88.21
2023-04-08T08:10:28.377Z,90.17
2023-04-08T08:12:56.486Z,91.47
2023-04-08T08:15:24.404Z,87.80
2023-04-08T08:17:52.744Z,89.09
2023-04-08T08:20:20.922Z,90.09
2023-04-08T08:22:57.236Z,87.68
2023-04-08T08:25:26.429Z,86.57
2023-04-08T08:27:55.649Z,89.15
2023-04-08T08:30:23.689Z,90.16
2023-04-08T08:32:52.425Z,87.81
2023-04-08T08:35:21.977Z,88.36
2023-04-08T08:37:49.856Z,85.64
2023-04-08T08:40:18.359Z,86.29
2023-04-08T08:42:52.556Z,89.25
2023-04-08T08:45:22.987Z,88.11
2023-04-08T08:47:51.895Z,86.02
2023-04-08T08:50:20.486Z,85.70
2023-04-08T08:52:52.155Z,84.52
2023-04-08T08:55:36.148Z,86.04
2023-04-08T08:58:09.574Z,87.39
2023-04-08T09:00:39.599Z,87.77
2023-04-08T09:03:23.934Z,87.47
2023-04-08T09:05:56.416Z,82.20
2023-04-08T09:08:26.488Z,82.62
2023-04-08T09:10:55.583Z,84.68
2023-04-08T09:13:25.852Z,84.22
2023-04-08T09:16:04.235Z,85.50
2023-04-08T09:18:37.144Z,83.53
2023-04-08T09:21:07.893Z,81.73
2023-04-08T09:23:42.800Z,83.38
2023-04-08T09:26:23.156Z,82.08
2023-04-08T09:29:11.419Z,80.96
2023-04-08T09:31:43.158Z,82.28
2023-04-08T09:34:12.837Z,81.33
2023-04-08T09:36:40.878Z,82.92
2023-04-08T09:39:09.177Z,82.59
2023-04-08T09:41:38.617Z,83.42
2023-04-08T09:44:08.760Z,80.79
2023-04-08T09:46:46.712Z,83.64
2023-04-08T09:49:38.606Z,82.47
2023-04-08T09:52:16.000Z,83.74
2023-04-08T09:54:54.543Z,85.31
2023-04-08T09:57:31.569Z,83.41
2023-04-08T10:00:16.403Z,83.51
2023-04-08T10:03:17.556Z,82.20
2023-04-08T10:05:47.506Z,84.55
2023-04-08T10:08:16.155Z,84.82
2023-04-08T10:10:45.544Z,82.07
2023-04-08T10:13:16.096Z,84.28
2023-04-08T10:15:47.877Z,83.58
2023-04-08T10:18:18.769Z,84.25
2023-04-08T10:20:47.888Z,84.00
2023-04-08T10:23:19.335Z,84.70
2023-04-08T10:25:48.749Z,88.58
2023-04-08T10:28:20.101Z,84.59
2023-04-08T10:30:51.116Z,84.59
2023-04-08T10:33:22.653Z,84.00
2023-04-08T10:35:55.341Z,86.15
2023-04-08T10:38:23.375Z,84.73
2023-04-08T10:40:52.687Z,84.08
2023-04-08T10:43:21.026Z,83.58
2023-04-08T10:45:51.599Z,84.44
2023-04-08T10:48:25.099Z,84.52
2023-04-08T10:50:55.170Z,83.47
2023-04-08T10:53:37.115Z,83.24
2023-04-08T10:56:05.557Z,79.98
2023-04-08T10:58:34.890Z,81.01
2023-04-08T11:01:07.884Z,81.67
2023-04-08T11:03:37.677Z,79.63
2023-04-08T11:06:08.171Z,80.45
2023-04-08T11:08:37.364Z,81.45
2023-04-08T11:11:11.383Z,80.79
2023-04-08T11:13:51.228Z,79.71
2023-04-08T11:16:21.900Z,78.14
2023-04-08T11:18:51.301Z,77.17
2023-04-08T11:21:19.266Z,78.66
2023-04-08T11:23:50.519Z,78.49
2023-04-08T11:26:20.209Z,77.33
2023-04-08T11:28:52.192Z,77.96
2023-04-08T11:31:24.113Z,79.04
2023-04-08T11:33:55.643Z,79.25
2023-04-08T11:36:24.000Z,80.86
2023-04-08T11:38:54.346Z,80.65
2023-04-08T11:41:22.691Z,78.96
2023-04-08T11:43:55.408Z,76.65
2023-04-08T11:46:24.325Z,79.26
2023-04-08T11:48:59.758Z,77.33
2023-04-08T11:51:28.336Z,77.50
2023-04-08T11:53:57.381Z,77.36
2023-04-08T11:56:26.202Z,78.39
2023-04-08T11:58:54.159Z,78.87
2023-04-08T12:01:22.656Z,80.38
2023-04-08T12:03:58.967Z,75.74
2023-04-08T12:06:28.237Z,79.33
2023-04-08T12:08:57.062Z,80.77
2023-04-08T12:11:25.302Z,76.50
2023-04-08T12:13:53.784Z,75.03
2023-04-08T12:16:22.621Z,76.95
2023-04-08T12:18:50.631Z,77.00
2023-04-08T12:21:18.563Z,77.00
2023-04-08T12:23:47.075Z,75.46
2023-04-08T12:26:15.012Z,77.26
2023-04-08T12:28:43.113Z,75.82
2023-04-08T12:31:11.568Z,77.11
2023-04-08T12:33:39.543Z,74.61
2023-04-08T12:36:07.908Z,74.96
2023-04-08T12:38:36.236Z,78.52
2023-04-08T12:41:04.233Z,81.08
2023-04-08T12:43:33.026Z,79.58
2023-04-08T12:46:02.258Z,79.79
2023-04-08T12:48:30.435Z,79.79
2023-04-08T12:50:59.023Z,80.94
2023-04-08T12:53:27.330Z,77.87
2023-04-08T12:55:57.528Z,81.27
2023-04-08T12:58:25.999Z,76.80
2023-04-08T13:00:56.338Z,80.05
2023-04-08T13:03:24.441Z,75.66
2023-04-08T13:05:52.582Z,76.41
2023-04-08T13:08:20.888Z,74.15
2023-04-08T13:10:49.010Z,75.64
2023-04-08T13:13:16.906Z,78.79
2023-04-08T13:15:45.244Z,78.14
2023-04-08T13:18:13.779Z,80.44
2023-04-08T13:20:41.744Z,77.05
2023-04-08T13:23:11.347Z,75.93
2023-04-08T13:25:39.216Z,75.65
2023-04-08T13:28:07.246Z,76.41
2023-04-08T13:30:35.988Z,75.35
2023-04-08T13:33:04.300Z,80.70
2023-04-08T13:35:32.506Z,83.08
2023-04-08T13:38:00.919Z,78.07
2023-04-08T13:40:30.300Z,77.03
2023-04-08T13:42:58.226Z,78.31
2023-04-08T13:45:26.653Z,78.26
2023-04-08T13:47:54.591Z,78.57
2023-04-08T13:50:22.638Z,78.71
2023-04-08T13:52:50.956Z,75.66
2023-04-08T13:55:19.008Z,76.75
2023-04-08T13:57:46.980Z,74.88
2023-04-08T14:00:15.731Z,75.04
2023-04-08T14:02:44.371Z,78.39
2023-04-08T14:05:12.509Z,77.51
2023-04-08T14:07:40.675Z,76.53
2023-04-08T14:10:09.885Z,74.99
2023-04-08T14:12:38.031Z,73.22
2023-04-08T14:15:06.617Z,73.86
2023-04-08T14:17:36.360Z,74.28
2023-04-08T14:20:08.351Z,78.12
2023-04-08T14:22:36.697Z,75.14
2023-04-08T14:25:04.915Z,76.84
2023-04-08T14:27:32.985Z,73.44
2023-04-08T14:30:02.869Z,73.86
2023-04-08T14:32:32.216Z,74.00
2023-04-08T14:35:00.219Z,71.29
2023-04-08T14:37:28.570Z,77.33
2023-04-08T14:39:58.319Z,75.32
2023-04-08T14:42:26.801Z,72.19
2023-04-08T14:44:55.099Z,74.23
2023-04-08T14:47:23.358Z,73.02
2023-04-08T14:49:51.424Z,75.73
2023-04-08T14:52:19.707Z,74.80
2023-04-08T14:54:48.256Z,75.13
2023-04-08T14:57:16.948Z,77.62
2023-04-08T14:59:45.283Z,77.17
2023-04-08T15:02:15.406Z,72.48
2023-04-08T15:04:43.304Z,74.49
2023-04-08T15:07:11.609Z,73.76
2023-04-08T15:09:39.682Z,77.99
2023-04-08T15:12:08.929Z,76.40
2023-04-08T15:14:37.187Z,76.08
2023-04-08T15:17:05.256Z,72.69
2023-04-08T15:19:33.264Z,76.04
2023-04-08T15:22:01.576Z,77.07
2023-04-08T15:24:29.514Z,76.71
2023-04-08T15:26:57.477Z,77.75
2023-04-08T15:29:26.380Z,74.75
2023-04-08T15:31:55.348Z,72.63
2023-04-08T15:34:23.326Z,76.07
2023-04-08T15:36:51.835Z,75.64
2023-04-08T15:39:19.756Z,74.92
2023-04-08T15:41:49.320Z,74.53
2023-04-08T15:44:19.452Z,77.39
2023-04-08T15:46:47.585Z,76.38
2023-04-08T15:49:15.742Z,78.32
2023-04-08T15:51:44.893Z,79.12
2023-04-08T15:54:12.810Z,80.78
2023-04-08T15:56:41.010Z,77.28
2023-04-08T15:59:09.358Z,77.17
2023-04-08T16:01:37.277Z,75.58
2023-04-08T16:04:06.195Z,75.75
2023-04-08T16:06:34.864Z,76.29
2023-04-08T16:09:02.770Z,76.75
2023-04-08T16:11:31.222Z,77.24
2023-04-08T16:13:59.048Z,78.42
2023-04-08T16:16:27.197Z,77.70
2023-04-08T16:18:56.778Z,75.79
2023-04-08T16:21:24.666Z,77.80
2023-04-08T16:23:54.953Z,75.92
2023-04-08T16:26:24.395Z,75.86
2023-04-08T16:28:52.791Z,75.63
2023-04-08T16:31:21.254Z,78.02
2023-04-08T16:33:51.895Z,78.83
2023-04-08T16:36:20.408Z,79.57
2023-04-08T16:38:48.268Z,79.01
2023-04-08T16:41:16.713Z,77.87
2023-04-08T16:43:44.790Z,78.03
2023-04-08T16:46:16.527Z,76.25
2023-04-08T16:48:45.264Z,77.37
2023-04-08T16:51:14.448Z,79.56
2023-04-08T16:53:42.864Z,77.68
2023-04-08T16:56:16.472Z,79.03
2023-04-08T16:58:44.544Z,80.29
2023-04-08T17:01:15.735Z,80.49
2023-04-08T17:03:44.142Z,81.09
2023-04-08T17:06:13.908Z,79.26
2023-04-08T17:08:43.615Z,79.75
2023-04-08T17:11:14.030Z,82.26
2023-04-08T17:13:43.732Z,84.42
2023-04-08T17:16:13.761Z,83.55
2023-04-08T17:18:42.487Z,84.14
2023-04-08T17:21:15.924Z,85.31
2023-04-08T17:23:43.950Z,84.57
2023-04-08T17:26:15.530Z,85.77
2023-04-08T17:28:45.368Z,78.17
2023-04-08T17:31:13.629Z,81.99
2023-04-08T17:33:41.838Z,82.58
2023-04-08T17:36:09.896Z,86.04
2023-04-08T17:38:40.216Z,82.88
2023-04-08T17:41:08.402Z,86.10
2023-04-08T17:43:36.431Z,85.85
2023-04-08T17:46:05.111Z,86.74
2023-04-08T17:48:33.205Z,86.43
2023-04-08T17:51:06.405Z,89.15
2023-04-08T17:53:34.831Z,88.11
2023-04-08T17:56:04.623Z,89.21
2023-04-08T17:58:32.619Z,90.86
2023-04-08T18:01:00.970Z,90.84
2023-04-08T18:03:29.347Z,91.66
2023-04-08T18:05:57.355Z,92.02
2023-04-08T18:08:25.673Z,92.16
2023-04-08T18:10:53.960Z,91.47
2023-04-08T18:13:22.125Z,91.47
2023-04-08T18:15:51.624Z,91.61
2023-04-08T18:18:20.457Z,92.55
2023-04-08T18:20:48.535Z,92.05
2023-04-08T18:23:17.347Z,92.37
2023-04-08T18:25:50.386Z,91.99
2023-04-08T18:28:18.403Z,92.07
2023-04-08T18:30:51.482Z,92.55
2023-04-08T18:33:19.564Z,92.00
2023-04-08T18:35:48.028Z,92.37
2023-04-08T18:38:16.418Z,91.90
2023-04-08T18:40:46.183Z,92.31
2023-04-08T18:43:15.007Z,92.17
2023-04-08T18:45:43.166Z,92.31
2023-04-08T18:48:12.602Z,93.70
2023-04-08T18:50:43.347Z,93.86
2023-04-08T18:53:12.646Z,94.06
2023-04-08T18:55:42.335Z,94.47
2023-04-08T18:58:11.193Z,93.72
2023-04-08T19:00:43.881Z,93.59
2023-04-08T19:03:12.442Z,95.56
2023-04-08T19:05:41.570Z,95.98
2023-04-08T19:08:09.464Z,94.55
2023-04-08T19:10:37.733Z,94.88
2023-04-08T19:13:05.652Z,95.46
2023-04-08T19:15:33.575Z,95.46
2023-04-08T19:18:01.911Z,95.32
2023-04-08T19:20:30.204Z,95.87
2023-04-08T19:22:58.050Z,96.86
2023-04-08T19:25:26.231Z,97.08
2023-04-08T19:27:54.172Z,97.94
2023-04-08T19:30:22.255Z,98.91
2023-04-08T19:32:51.674Z,97.96
2023-04-08T19:35:19.649Z,97.95
2023-04-08T19:37:47.572Z,98.18
2023-04-08T19:40:16.097Z,98.06
2023-04-08T19:42:44.744Z,97.85
2023-04-08T19:45:12.821Z,98.34
2023-04-08T19:47:43.435Z,96.44
2023-04-08T19:50:12.697Z,96.77
2023-04-08T19:52:41.218Z,97.45
2023-04-08T19:55:10.449Z,97.36
2023-04-08T19:57:38.367Z,98.19
2023-04-08T20:00:08.398Z,97.22
2023-04-08T20:02:36.399Z,98.11
2023-04-08T20:05:05.134Z,99.28
2023-04-08T20:07:32.978Z,100.00
2023-04-08T20:10:01.064Z,100.00
2023-04-08T20:12:30.436Z,100.00
2023-04-08T20:14:58.365Z,100.00
2023-04-08T20:17:26.689Z,100.00
2023-04-08T20:19:55.221Z,99.59
2023-04-08T20:22:23.131Z,99.78
2023-04-08T20:24:51.204Z,100.00
2023-04-08T20:27:19.442Z,100.00
2023-04-08T20:29:47.674Z,100.00
2023-04-08T20:32:15.753Z,100.00
2023-04-08T20:34:43.995Z,100.00
2023-04-08T20:37:11.984Z,100.00
2023-04-08T20:39:39.855Z,100.00
2023-04-08T20:42:09.621Z,100.00
2023-04-08T20:44:37.653Z,100.00
2023-04-08T20:47:05.729Z,100.00
2023-04-08T20:49:35.393Z,97.39
2023-04-08T20:52:03.460Z,96.50
2023-04-08T20:54:31.904Z,97.06
2023-04-08T20:57:00.263Z,100.00
2023-04-08T20:59:28.503Z,100.00
2023-04-08T21:01:56.603Z,100.00
2023-04-08T21:04:24.984Z,100.00
2023-04-08T21:06:53.013Z,100.00
2023-04-08T21:09:21.206Z,100.00
2023-04-08T21:11:49.431Z,100.00
2023-04-08T21:14:17.347Z,100.00
2023-04-08T21:16:45.789Z,100.00
2023-04-08T21:19:14.174Z,100.00
2023-04-08T21:21:42.097Z,100.00
2023-04-08T21:24:10.935Z,100.00
2023-04-08T21:26:39.510Z,100.00
2023-04-08T21:29:07.509Z,100.00
2023-04-08T21:31:35.724Z,100.00
2023-04-08T21:34:06.090Z,100.00
2023-04-08T21:36:34.097Z,100.00
2023-04-08T21:39:02.612Z,100.00
2023-04-08T21:41:30.972Z,100.00
2023-04-08T21:43:59.554Z,100.00
2023-04-08T21:46:27.638Z,100.00
2023-04-08T21:48:56.287Z,100.00
2023-04-08T21:51:24.270Z,100.00
2023-04-08T21:53:52.661Z,100.00
2023-04-08T21:56:22.408Z,100.00
2023-04-08T21:58:50.811Z,100.00
2023-04-08T22:01:19.079Z,100.00
2023-04-08T22:03:47.636Z,100.00
2023-04-08T22:06:29.136Z,100.00
2023-04-08T22:09:00.194Z,100.00
2023-04-08T22:11:28.178Z,100.00
2023-04-08T22:13:56.062Z,100.00
2023-04-08T22:16:24.508Z,100.00
2023-04-08T22:18:52.648Z,100.00
2023-04-08T22:21:21.187Z,100.00
2023-04-08T22:23:49.487Z,100.00
2023-04-08T22:26:17.424Z,100.00
2023-04-08T22:28:45.387Z,100.00
2023-04-08T22:31:13.760Z,100.00
2023-04-08T22:33:41.781Z,100.00
2023-04-08T22:36:09.914Z,100.00
2023-04-08T22:38:38.345Z,100.00
2023-04-08T22:41:06.269Z,100.00
2023-04-08T22:43:34.187Z,100.00
2023-04-08T22:46:02.457Z,100.00
2023-04-08T22:48:30.481Z,100.00
2023-04-08T22:50:58.463Z,100.00
2023-04-08T22:53:27.736Z,100.00
2023-04-08T22:55:55.611Z,100.00
2023-04-08T22:58:23.665Z,100.00
2023-04-08T23:00:51.887Z,100.00
2023-04-08T23:03:19.846Z,100.00
2023-04-08T23:05:47.829Z,100.00
2023-04-08T23:08:16.387Z,100.00
2023-04-08T23:10:44.359Z,100.00
2023-04-08T23:13:14.159Z,100.00
2023-04-08T23:15:42.425Z,100.00
2023-04-08T23:18:10.426Z,100.00
2023-04-08T23:20:38.378Z,100.00
2023-04-08T23:23:06.719Z,100.00
2023-04-08T23:25:37.673Z,100.00
2023-04-08T23:28:05.821Z,100.00
2023-04-08T23:30:34.093Z,100.00
2023-04-08T23:33:02.052Z,100.00
2023-04-08T23:35:29.893Z,100.00
2023-04-08T23:37:58.277Z,100.00
2023-04-08T23:40:26.364Z,100.00
2023-04-08T23:42:54.338Z,100.00
2023-04-08T23:45:22.641Z,100.00
2023-04-08T23:47:50.671Z,100.00
2023-04-08T23:50:20.406Z,100.00
2023-04-08T23:52:48.866Z,100.00
2023-04-08T23:55:16.865Z,100.00
2023-04-08T23:57:44.974Z,100.00
